YUKO2: Yukon 2NNE(N Canadian R)

Data processed at Wed May 22 2019 23:50


All information presented herein is the property of the government of the United States of America and may be revised or deleted at any time without prior notice.
Dissemination of this information without the expressed written consent of the Public Affairs Office, Tulsa District U.S. Army Corps of Engineers is strictly prohibited.
These data are gathered electronically and, as presented, have not undergone any form of quality control. These data are not guaranteed to be valid or correct.
Go to home page.
Go to station list.
Go to home page.

Upstream stations:

Downstream station:
Previous Day
Next Day
Current Day
    
SHEF ID:       YUKO2     North Canadian River near Yukon,
STATION TYPE:  
Regulating: Stage =    11.00, Flow =     3611

                STAGE  STAGE(2)  RIV-FLOW  WTR-TEMP   CONDUCT  BAT-LOAD
                   ft        ft       cfs         F   umho/cm      volt
              Ccp-Rev   Ccp-Rev   Ccp-Rev   Ccp-Rev   Ccp-Rev   Ccp-Rev
(US/Central)
05/22 00:00     16.78      ----     23284     62.65       254     12.83
05/22 01:00     16.74      ----     22783     62.60       244     12.83
05/22 02:00     16.70      ----     22292     62.56       238     12.83
05/22 03:00     16.62      ----     21337     62.53       231     12.83
05/22 04:00     16.54      ----     20420     62.49       228     12.83
05/22 05:00     16.44      ----     19322     62.44       220     12.83
05/22 06:00     16.35      ----     18379     62.38       219     12.77
05/22 07:00     16.24      ----     17283     62.28       220     12.77
05/22 08:00     16.13      ----     16245     62.26       223     12.89
05/22 09:00     16.01      ----     15177     62.28       226     13.18
05/22 10:00     15.87      ----     14009     62.37       230     13.53
05/22 11:00     15.75      ----     13077     62.49       235     13.83
05/22 12:00     15.63      ----     12202     62.80       240     14.18
05/22 13:00     15.53      ----     11513     63.23       244     14.06
05/22 14:00     15.41      ----     10790     63.66       250     14.06
05/22 15:00     15.31      ----     10283     64.18       254     14.12
05/22 16:00     15.26      ----     10038     64.89       258     14.12
05/22 17:00     15.19      ----      9702     65.32       265     13.94
05/22 18:00     15.12      ----      9377     65.66       270     14.00
05/22 19:00     15.05      ----      9107     65.97       275     13.88
05/22 20:00     14.97      ----      8815     66.09       280     13.59
05/22 21:00     14.90      ----      8567     66.07       286     13.18
05/22 22:00     14.82      ----      8290     66.18       290     12.95
05/22 23:00     14.75      ----      8054     66.13       295     12.89